Etusivu
METAR-TAF:

METAR-TAF

Lentoasemat :

Hōfu, Japani

Leveyspiiri: 34-02N, Pituuspiiri: 131-33E, korkeus merenpinnasta: 2 m

Tämänhetkinen sää

Tämä raportti tehtiin 1 tunti ja 52 minuuttia sitten, kello 23.34 UTC
Tuuli 5 kn pohjoisesta
Lämpötila 4°C
Kosteus 87%
Ilmanpaine 1031 hPa
Näkyvyys 10 km tai enemmän
Muutamia pilviä 3000 ft:n korkeudessa
Hajanaisia pilviä 6000 ft:n korkeudessa

METAR: RJOF 142334Z 01005KT 9999 FEW030 SCT060 04/02 Q1031 RMK 1CU030 3SC060 A3046

Aika: 10:26 (01:26 UTC)


TAF: puuttuu

Säähavainnot ja -ennusteet yli 4000 lentoasemalta (METAR- ja TAF-raportit).

Käytössä olevat sääasemat on merkitty karttaan keltaisilla ja punaisilla pisteillä.

Aseta hiiri pisteen päälle nähdäksesi sääaseman nimen.

Klikkaa sitten nähdäksesi säähavainnot ja -ennusteet.

Kartan vaihtaminen: klikkaa mustalla rastilla varustettuja vihreitä pisteitä, niin voit zoomata sisään; viivalla varustettua vihreää pistettä, niin voit zoomata ulos tai vihreitä nuolia, niin pääset viereisille kartoille.


METAR-TAF: